Latest Weather Observations for Gladstone

IDQ60801

Issued at 8:32 pm EST Wednesday 1 April 2015 (issued every 30 minutes, with the page automatically refreshed every 10 minutes)

About weather observations | Map of weather stations | Latest weather observations for QLD | Other Formats
Station Details ID: 039123 Name: GLADSTONE RADAR Lat: -23.86 Lon: 151.26 Height: 74.5 m
Data from the previous 72 hours. | See also: Recent months at Gladstone
Date/Time
EST
Temp
°C
App
Temp
°C
Dew
Point
Rel
Hum
%
Delta-T
°C
Wind Press
QNH
hPa
Press
MSL
hPa
Rain
since 9 am
mm
Dir
 
Spd
km/h
Gust
km/h
Spd
kts
Gust
kts
01/08:30pm 21.0 20.0 18.8 87 1.4 SE 22 32 12 17 1017.5 1017.2 0.0
01/08:00pm 22.1 21.5 18.5 80 2.3 SE 19 32 10 17 1017.2 1016.9 0.0
01/07:30pm 22.1 22.0 18.7 81 2.1 SE 17 24 9 13 1016.9 1016.6 0.0
01/07:00pm 22.1 21.4 18.3 79 2.4 SE 19 28 10 15 1016.4 1016.1 0.0
01/06:30pm 22.4 21.8 18.8 80 2.3 SE 20 32 11 17 1016.1 1015.8 0.0
01/06:00pm 22.7 21.3 18.7 78 2.5 ESE 24 35 13 19 1015.7 1015.4 0.0
01/05:30pm 23.5 20.2 19.2 77 2.7 ESE 35 48 19 26 1015.5 1015.2 0.0
01/05:00pm 24.2 21.9 19.3 74 3.1 ESE 30 43 16 23 1015.3 1015.0 0.0
01/04:30pm 24.9 23.3 19.3 71 3.6 ESE 26 37 14 20 1014.9 1014.6 0.0
01/04:00pm 24.9 22.5 18.3 66 4.2 ESE 28 37 15 20 1014.9 1014.6 0.0
01/03:30pm 24.7 23.6 18.6 69 3.9 E 22 33 12 18 1014.8 1014.5 0.0
01/03:00pm 24.9 23.7 18.3 66 4.2 ESE 22 35 12 19 1015.1 1014.8 0.0
01/02:30pm 24.8 22.1 18.5 68 4.0 ESE 30 41 16 22 1015.2 1014.9 0.0
01/02:00pm 25.4 22.0 17.8 62 4.8 ESE 32 44 17 24 1015.3 1015.0 0.0
01/01:30pm 26.1 23.9 19.5 67 4.3 ESE 30 43 16 23 1015.7 1015.4 0.0
01/01:00pm 26.3 23.7 19.4 66 4.5 ESE 32 44 17 24 1016.1 1015.8 0.0
01/12:30pm 27.5 26.6 19.8 63 5.0 ESE 24 43 13 23 1016.5 1016.2 0.0
01/12:00pm 27.6 27.5 20.7 66 4.6 E 22 33 12 18 1016.9 1016.6 0.0
01/11:30am 24.9 25.2 20.4 76 2.9 SE 19 32 10 17 1017.4 1017.1 0.0
01/11:00am 24.0 22.3 19.9 78 2.6 ESE 28 37 15 20 1017.9 1017.6 0.0
01/10:30am 24.1 23.0 19.4 75 3.0 ESE 24 35 13 19 1018.2 1017.9 0.0
01/10:00am 23.2 22.5 19.4 79 2.4 SE 22 35 12 19 1018.6 1018.3 0.0
01/09:30am 22.6 22.1 19.2 81 2.2 SE 20 32 11 17 1018.7 1018.3 0.0
01/09:00am 22.3 21.7 18.9 81 2.1 SE 20 35 11 19 1018.6 1018.2 5.6
01/08:30am 21.9 21.5 19.3 85 1.7 SE 20 32 11 17 1018.6 1018.2 5.6
01/08:00am 21.6 20.8 19.2 86 1.5 SE 22 35 12 19 1018.2 1017.8 5.6
01/07:30am 21.4 20.9 19.1 87 1.5 SE 20 32 11 17 1017.5 1017.1 5.6
01/07:00am 21.3 20.8 19.0 87 1.5 SE 20 35 11 19 1017.4 1017.0 5.6
01/06:30am 21.5 22.0 19.2 87 1.5 SSE 15 24 8 13 1017.2 1016.8 5.6
01/06:00am 21.3 22.2 19.2 88 1.3 SSE 13 20 7 11 1017.1 1016.7 5.6
01/05:30am 21.3 21.4 19.2 88 1.3 SSE 17 24 9 13 1016.9 1016.5 5.6
01/05:00am 21.6 22.1 19.2 86 1.5 SSE 15 22 8 12 1016.7 1016.3 5.6
01/04:30am 21.7 21.4 19.1 85 1.6 SSE 19 28 10 15 1016.3 1015.9 5.6
01/04:00am 21.6 21.5 18.8 84 1.8 S 17 24 9 13 1016.3 1015.9 5.6
01/03:30am 21.6 21.2 19.0 85 1.6 SSE 19 30 10 16 1016.1 1015.7 5.6
01/03:00am 21.5 21.2 19.1 86 1.5 SSE 19 32 10 17 1016.2 1015.8 5.6
01/02:30am 21.1 21.6 19.2 89 1.2 S 15 22 8 12 1016.6 1016.2 5.6
01/02:00am 20.6 20.7 19.1 91 0.9 S 17 26 9 14 1017.0 1016.6 5.6
01/01:30am 20.5 20.0 19.2 92 0.8 S 20 30 11 16 1017.4 1017.0 5.6
01/01:00am 20.3 19.5 19.3 94 0.6 SE 22 33 12 18 1017.1 1016.7 4.8
 
Date/Time
EST
Temp
°C
App
Temp
°C
Dew
Point
Rel
Hum
%
Delta-T
°C
Wind Press
QNH
hPa
Press
MSL
hPa
Rain
since 9 am
mm
Dir
 
Spd
km/h
Gust
km/h
Spd
kts
Gust
kts
31/11:30pm 21.2 21.0 18.6 85 1.6 SSE 17 30 9 16 1019.2 1018.8 3.0
31/11:00pm 20.9 20.4 19.2 90 1.1 SSE 20 32 11 17 1018.4 1018.0 3.0
31/10:30pm 20.7 20.4 19.5 93 0.8 SSE 20 32 11 17 1018.6 1018.2 3.0
31/10:00pm 20.6 19.7 19.8 95 0.5 SSE 24 39 13 21 1019.1 1018.7 3.0
31/09:30pm 21.0 20.5 20.0 94 0.6 SE 22 35 12 19 1019.8 1019.3 2.6
31/09:00pm 21.5 21.6 20.0 91 1.0 SSE 19 26 10 14 1019.9 1019.4 2.2
31/08:30pm 22.2 21.2 19.7 86 1.6 SE 24 33 13 18 1019.6 1019.1 0.8
31/08:00pm 23.4 22.9 19.1 77 2.7 SE 20 26 11 14 1019.7 1019.2 0.0
31/07:30pm 23.8 23.3 18.7 73 3.2 SE 19 30 10 16 1019.1 1018.7 0.0
31/07:00pm 23.9 22.1 18.8 73 3.2 ESE 26 37 14 20 1018.5 1018.1 0.0
31/06:39pm 24.1 21.7 18.3 70 3.7 ESE 28 46 15 25 1018.5 1018.1 0.0
31/06:30pm 24.2 21.9 18.4 70 3.7 ESE 28 39 15 21 1018.5 1018.1 0.0
31/06:00pm 25.4 22.4 16.8 59 5.3 ESE 28 39 15 21 1018.0 1017.6 0.0
31/05:30pm 25.8 22.0 14.6 50 6.7 ESE 28 39 15 21 1017.8 1017.4 0.0
31/05:00pm 25.9 23.1 17.3 59 5.4 ESE 28 44 15 24 1017.1 1016.7 0.0
31/04:30pm 26.3 23.2 17.4 58 5.6 ESE 30 43 16 23 1016.9 1016.5 0.0
31/04:00pm 26.8 24.0 18.1 59 5.5 ESE 30 44 16 24 1016.4 1016.0 0.0
31/03:30pm 27.4 25.1 17.6 55 6.2 E 26 41 14 22 1016.6 1016.2 0.0
31/03:00pm 27.9 24.6 18.0 55 6.3 E 32 43 17 23 1016.8 1016.4 0.0
31/02:30pm 28.9 26.8 18.1 52 6.9 E 26 43 14 23 1017.1 1016.7 0.0
31/02:00pm 29.1 26.4 18.5 52 6.8 E 30 41 16 22 1017.3 1016.9 0.0
31/01:30pm 28.5 26.4 18.9 56 6.2 E 28 43 15 23 1017.6 1017.2 0.0
31/01:00pm 28.5 26.3 18.6 55 6.4 ESE 28 43 15 23 1018.1 1017.7 0.0
31/12:30pm 29.3 26.7 18.7 52 6.8 ESE 30 44 16 24 1018.7 1018.3 0.0
31/12:00pm 29.9 28.9 20.5 57 6.2 E 26 44 14 24 1018.9 1018.5 0.0
31/11:30am 28.5 25.8 19.7 59 5.8 E 33 44 18 24 1019.4 1018.9 0.0
31/11:00am 27.5 25.7 19.6 62 5.1 ESE 28 41 15 22 1019.8 1019.3 0.0
31/10:40am 27.3 25.7 20.1 64 4.7 ESE 28 46 15 25 1020.1 1019.6 0.0
31/10:30am 26.5 24.5 19.1 64 4.8 ESE 28 43 15 23 1020.4 1019.9 0.0
31/10:00am 26.7 24.9 19.6 65 4.6 ESE 28 41 15 22 1020.6 1020.1 0.0
31/09:30am 26.2 26.0 19.8 68 4.2 ESE 20 32 11 17 1020.7 1020.2 0.0
31/09:00am 26.3 25.9 20.2 69 4.0 SE 22 37 12 20 1020.6 1020.1 0.0
31/08:30am 24.5 24.1 19.3 73 3.3 SE 20 33 11 18 1020.5 1020.0 0.0
31/08:00am 24.5 24.4 20.0 76 2.9 SE 20 33 11 18 1020.2 1019.7 0.0
31/07:30am 23.1 22.7 19.3 79 2.4 SSE 20 33 11 18 1019.8 1019.3 0.0
31/07:00am 21.5 21.1 18.9 85 1.6 SSE 19 30 10 16 1019.7 1019.2 0.0
31/06:30am 21.2 20.8 18.8 86 1.5 SSE 19 26 10 14 1019.4 1018.9 0.0
31/06:00am 20.9 20.7 18.5 86 1.5 SSE 17 26 9 14 1019.2 1018.8 0.0
31/05:30am 21.0 20.4 18.4 85 1.6 SSE 19 26 10 14 1018.8 1018.4 0.0
31/05:00am 21.0 20.7 18.2 84 1.7 SSE 17 26 9 14 1018.7 1018.3 0.0
31/04:30am 21.2 20.8 18.0 82 2.0 SSE 17 28 9 15 1018.7 1018.3 0.0
31/04:00am 21.3 20.9 18.1 82 2.0 SSE 17 26 9 14 1018.5 1018.1 0.0
31/03:30am 21.3 20.8 17.9 81 2.1 SSE 17 24 9 13 1018.5 1018.1 0.0
31/03:00am 21.6 20.8 18.0 80 2.2 SSE 19 30 10 16 1018.8 1018.4 0.0
31/02:30am 21.8 21.8 18.0 79 2.4 SSE 15 24 8 13 1019.0 1018.6 0.0
31/02:00am 22.1 21.7 18.1 78 2.5 SSE 17 28 9 15 1019.2 1018.8 0.0
31/01:30am 22.2 21.8 18.0 77 2.6 SSE 17 24 9 13 1019.7 1019.2 0.0
31/01:00am 22.3 21.8 17.9 76 2.7 SSE 17 24 9 13 1020.1 1019.6 0.0
31/12:30am 22.4 21.8 17.5 74 3.0 SSE 17 30 9 16 1020.3 1019.8 0.0
31/12:00am 22.5 21.8 17.4 73 3.1 SSE 17 26 9 14 1020.6 1020.1 0.0
 
Date/Time
EST
Temp
°C
App
Temp
°C
Dew
Point
Rel
Hum
%
Delta-T
°C
Wind Press
QNH
hPa
Press
MSL
hPa
Rain
since 9 am
mm
Dir
 
Spd
km/h
Gust
km/h
Spd
kts
Gust
kts
30/11:30pm 22.7 22.1 17.6 73 3.2 SSE 17 22 9 12 1020.7 1020.2 0.0
30/11:00pm 22.8 21.9 17.7 73 3.2 SE 19 24 10 13 1020.9 1020.4 0.0
30/10:30pm 23.2 22.4 17.9 72 3.3 SE 19 24 10 13 1021.0 1020.5 0.0
30/10:00pm 23.3 22.9 18.0 72 3.3 SE 17 22 9 12 1021.3 1020.8 0.0
30/09:30pm 23.6 23.1 17.8 70 3.6 SE 17 24 9 13 1021.5 1021.0 0.0
30/09:00pm 23.9 23.1 18.1 70 3.6 SE 19 26 10 14 1021.3 1020.8 0.0
30/08:30pm 24.6 23.7 17.8 66 4.3 SE 19 28 10 15 1021.2 1020.7 0.0
30/08:00pm 25.1 21.9 17.3 62 4.9 ESE 30 43 16 23 1020.7 1020.2 0.0
30/07:30pm 25.0 22.7 18.4 66 4.2 ESE 28 41 15 22 1020.3 1019.8 0.0
30/07:00pm 25.0 22.6 18.2 66 4.3 ESE 28 41 15 22 1020.2 1019.7 0.0
30/06:30pm 25.2 23.4 17.9 64 4.6 ESE 24 37 13 20 1020.0 1019.5 0.0
30/06:00pm 25.2 22.2 17.7 63 4.7 E 30 41 16 22 1019.5 1019.0 0.0
30/05:30pm 25.5 23.2 17.7 62 4.9 E 26 35 14 19 1019.4 1018.9 0.0
30/05:00pm 26.0 22.9 17.6 60 5.3 E 30 43 16 23 1019.1 1018.7 0.0
30/04:30pm 26.6 22.7 16.5 54 6.3 E 32 43 17 23 1018.9 1018.5 0.0
30/04:00pm 27.5 24.9 16.8 52 6.7 E 26 39 14 21 1018.5 1018.1 0.0
30/03:39pm 27.7 24.9 18.1 56 6.1 E 30 48 16 26 1018.4 1018.0 0.0
30/03:30pm 28.4 26.1 18.5 55 6.4 E 28 43 15 23 1018.4 1018.0 0.0
30/03:00pm 28.4 24.7 17.0 50 7.2 E 32 43 17 23 1018.4 1018.0 0.0
30/02:30pm 28.4 24.7 17.0 50 7.2 E 32 44 17 24 1018.4 1018.0 0.0
30/02:03pm 29.4 26.7 17.6 49 7.5 E 28 46 15 25 1018.7 1018.3 0.0
30/02:00pm 28.5 24.9 17.1 50 7.2 ESE 32 46 17 25 1018.7 1018.3 0.0
30/01:30pm 29.1 26.2 18.8 53 6.7 E 32 43 17 23 1019.0 1018.6 0.0
30/01:00pm 28.8 25.8 17.7 51 7.0 E 30 41 16 22 1019.5 1019.0 0.0
30/12:30pm 28.9 24.9 16.8 48 7.6 E 33 46 18 25 1019.8 1019.3 0.0
30/12:00pm 29.6 27.5 19.0 53 6.9 E 28 41 15 22 1020.3 1019.8 0.0
30/11:30am 29.9 28.5 19.6 54 6.8 ESE 26 41 14 22 1021.0 1020.5 0.0
30/11:00am 28.6 27.0 19.2 56 6.1 ESE 26 43 14 23 1021.5 1021.0 0.0
30/10:30am 28.5 26.8 18.9 56 6.2 ESE 26 35 14 19 1021.7 1021.2 0.0
30/10:00am 27.5 25.1 18.2 57 5.9 ESE 28 46 15 25 1021.6 1021.1 0.0
30/09:30am 27.1 25.7 18.7 60 5.4 ESE 24 39 13 21 1021.9 1021.5 0.0
30/09:00am 26.5 25.2 18.1 60 5.3 ESE 22 35 12 19 1021.8 1021.3 0.2
30/08:30am 25.8 25.1 18.7 65 4.5 ESE 20 32 11 17 1021.6 1021.1 0.2
30/08:00am 24.6 24.4 18.5 69 3.9 SE 17 32 9 17 1021.4 1020.9 0.2
30/07:30am 23.6 23.0 18.5 73 3.2 SE 19 28 10 15 1020.9 1020.4 0.2
30/07:00am 22.5 22.0 17.8 75 2.9 SSE 17 26 9 14 1020.5 1020.0 0.2
30/06:30am 21.8 20.9 17.8 78 2.5 SSE 19 28 10 15 1020.4 1019.9 0.2
30/06:00am 21.6 20.5 17.4 77 2.6 SSE 19 26 10 14 1020.3 1019.8 0.2
30/05:30am 21.5 20.9 17.5 78 2.5 SSE 17 28 9 15 1020.0 1019.5 0.2
30/05:00am 21.5 20.5 17.5 78 2.5 SSE 19 26 10 14 1019.8 1019.3 0.2
30/04:30am 21.7 21.1 17.5 77 2.6 SSE 17 24 9 13 1019.5 1019.0 0.2
30/04:00am 21.9 21.0 17.7 77 2.6 SSE 19 26 10 14 1019.2 1018.8 0.2
30/03:30am 22.2 21.6 17.6 75 2.9 SSE 17 24 9 13 1019.4 1018.9 0.2
30/03:00am 22.3 21.8 17.7 75 2.9 SSE 17 24 9 13 1019.6 1019.1 0.2
30/02:30am 22.7 22.1 17.6 73 3.2 SSE 17 24 9 13 1019.7 1019.2 0.2
30/02:00am 22.8 22.6 17.7 73 3.2 SSE 15 22 8 12 1019.7 1019.2 0.2
30/01:30am 23.0 22.5 17.9 73 3.2 SSE 17 22 9 12 1019.9 1019.4 0.2
30/01:00am 23.3 22.9 18.0 72 3.3 SE 17 26 9 14 1020.2 1019.7 0.2
30/12:30am 23.5 23.3 18.4 73 3.2 SE 17 24 9 13 1020.5 1020.0 0.2
30/12:00am 24.1 23.5 18.5 71 3.5 SE 19 28 10 15 1020.7 1020.2 0.2
 
Date/Time
EST
Temp
°C
App
Temp
°C
Dew
Point
Rel
Hum
%
Delta-T
°C
Wind Press
QNH
hPa
Press
MSL
hPa
Rain
since 9 am
mm
Dir
 
Spd
km/h
Gust
km/h
Spd
kts
Gust
kts
29/11:30pm 24.3 23.7 18.9 72 3.4 ESE 20 30 11 16 1020.9 1020.4 0.2
29/11:00pm 24.5 23.9 18.9 71 3.6 SE 20 30 11 16 1021.2 1020.7 0.2
29/10:30pm 24.7 24.2 19.1 71 3.6 SE 20 39 11 21 1021.1 1020.6 0.2
29/10:00pm 25.0 23.3 18.9 69 3.9 ESE 26 43 14 23 1021.0 1020.5 0.2
29/09:30pm 25.1 22.9 18.8 68 4.0 ESE 28 41 15 22 1021.0 1020.5 0.2
29/09:00pm 25.2 23.8 18.9 68 4.0 ESE 24 39 13 21 1021.2 1020.7 0.2

Other Formats:

Comma delimited format used in spreadsheet applications
http://www.bom.gov.au/fwo/IDQ60801/IDQ60801.94380.axf

JavaScript Object Notation format (JSON) in row-major order
http://www.bom.gov.au/fwo/IDQ60801/IDQ60801.94380.json